createdAt,value
2019-01-06T12:44:30.737Z,6.80
2019-01-06T12:49:53.744Z,6.70
2019-01-06T12:55:09.841Z,6.70
2019-01-06T13:00:37.281Z,6.70
2019-01-06T13:06:11.151Z,6.80
2019-01-06T13:11:31.561Z,8.00
2019-01-06T17:54:57.813Z,5.70
2019-01-06T18:00:12.146Z,5.80
2019-01-06T18:05:38.541Z,5.80
2019-01-06T18:10:59.756Z,5.90
2019-01-06T18:16:33.651Z,5.90
2019-01-06T18:22:01.693Z,5.80
2019-01-06T18:27:22.761Z,5.80
2019-01-06T18:32:50.517Z,5.70
2019-01-06T18:38:07.513Z,5.70
2019-01-06T18:43:29.777Z,5.70
2019-01-06T18:48:43.053Z,5.80
2019-01-06T18:54:16.640Z,5.70
2019-01-06T18:59:44.025Z,5.70
2019-01-06T19:05:13.858Z,5.80
2019-01-06T19:10:34.450Z,5.80
2019-01-06T19:15:54.815Z,5.80
2019-01-06T19:21:12.437Z,5.70
2019-01-06T19:26:46.977Z,5.50
2019-01-06T19:32:18.047Z,5.60
2019-01-06T19:37:45.445Z,5.70
2019-01-06T19:42:58.054Z,5.60
2019-01-06T19:48:13.293Z,5.60
2019-01-06T19:53:32.048Z,5.60
2019-01-06T19:59:11.880Z,5.60
2019-01-06T20:04:48.639Z,5.60
2019-01-06T20:10:22.145Z,5.60
2019-01-06T20:15:42.213Z,5.60
2019-01-06T20:21:02.570Z,5.60
2019-01-06T20:26:14.241Z,5.60
2019-01-06T20:31:37.015Z,5.50
2019-01-06T20:36:54.227Z,5.50
2019-01-06T20:42:16.322Z,5.40
2019-01-06T20:47:43.446Z,5.40
2019-01-06T20:53:10.721Z,5.40
2019-01-06T20:58:32.537Z,5.40
2019-01-06T21:03:59.123Z,5.40
2019-01-06T21:09:20.122Z,5.40
2019-01-06T21:14:38.421Z,5.40
2019-01-06T21:20:06.429Z,5.40
2019-01-06T21:25:26.932Z,5.40
